Time;durP1;ratioP1;P1;durP2;ratioP2;P2;SDS_P1;SDS_P2;PMS_P1;PMS_P2;Temp;Humidity;BMP_temperature;BMP_pressure;BME280_temperature;BME280_humidity;BME280_pressure;Samples;Min_cycle;Max_cycle;Signal;HPM_P1;HPM_P2
2023/03/22 00:00:29;;;;;;;9.98;5.22;;;;;;;10.36;100.00;100883.63;6323126;22;20165;-69
2023/03/22 00:02:55;;;;;;;12.50;5.28;;;;;;;10.38;100.00;100882.56;6295330;22;20113;-69
2023/03/22 00:05:21;;;;;;;13.95;5.00;;;;;;;10.34;100.00;100881.06;6323834;22;20066;-70
2023/03/22 00:07:52;;;;;;;18.95;7.13;;;;;;;10.35;100.00;100871.25;6295610;22;20033;-69
2023/03/22 00:10:19;;;;;;;12.35;4.80;;;;;;;10.28;100.00;100875.25;6324182;22;20015;-69
2023/03/22 00:12:45;;;;;;;10.75;5.40;;;;;;;10.28;100.00;100872.56;6322994;22;20025;-69
2023/03/22 00:15:10;;;;;;;13.93;6.20;;;;;;;10.10;100.00;100874.53;6269208;22;20022;-70
2023/03/22 00:17:37;;;;;;;18.80;6.78;;;;;;;10.04;100.00;100869.56;6295020;22;20011;-70
2023/03/22 00:20:05;;;;;;;23.63;8.18;;;;;;;10.12;100.00;100869.97;6322643;22;20595;-68
2023/03/22 00:22:31;;;;;;;18.13;7.55;;;;;;;10.21;100.00;100868.56;6322524;22;20081;-70
2023/03/22 00:24:56;;;;;;;15.68;6.80;;;;;;;10.12;100.00;100868.16;6322903;22;20010;-71
2023/03/22 00:27:22;;;;;;;16.02;6.60;;;;;;;9.91;100.00;100866.78;6322736;22;20018;-68
2023/03/22 00:29:50;;;;;;;13.68;5.78;;;;;;;9.81;100.00;100865.63;6323042;22;20014;-68
2023/03/22 00:32:16;;;;;;;7.68;4.35;;;;;;;10.09;100.00;100863.03;6322989;22;20014;-70
2023/03/22 00:34:41;;;;;;;14.90;5.13;;;;;;;9.89;100.00;100859.84;6294671;22;20019;-68
2023/03/22 00:37:07;;;;;;;15.30;5.18;;;;;;;9.96;100.00;100858.53;6323581;22;20069;-68
2023/03/22 00:39:33;;;;;;;12.73;6.35;;;;;;;9.85;100.00;100857.38;6296725;22;20063;-68
2023/03/22 00:41:58;;;;;;;17.10;5.72;;;;;;;9.82;100.00;100857.53;6323876;22;20653;-68
2023/03/22 00:44:24;;;;;;;10.93;5.53;;;;;;;9.73;100.00;100855.44;6324188;22;20019;-69
2023/03/22 00:46:49;;;;;;;16.85;6.32;;;;;;;9.82;100.00;100851.38;6296096;22;20387;-69
2023/03/22 00:49:15;;;;;;;14.77;5.72;;;;;;;9.75;100.00;100845.56;6296248;22;20019;-70
2023/03/22 00:51:40;;;;;;;16.48;6.22;;;;;;;9.90;100.00;100841.13;6296079;22;20019;-69
2023/03/22 00:54:06;;;;;;;14.70;7.25;;;;;;;9.86;100.00;100843.09;6296017;22;20019;-70
2023/03/22 00:56:32;;;;;;;11.82;7.03;;;;;;;9.74;100.00;100845.63;6295751;22;20307;-70
2023/03/22 00:59:11;;;;;;;20.17;8.27;;;;;;;9.80;100.00;100831.97;6296514;22;20026;-70
2023/03/22 01:01:36;;;;;;;22.67;7.20;;;;;;;9.99;100.00;100832.56;6296155;22;20449;-68
2023/03/22 01:04:04;;;;;;;20.85;8.73;;;;;;;9.91;100.00;100832.16;6295725;22;20049;-69
2023/03/22 01:06:31;;;;;;;13.27;7.25;;;;;;;9.89;100.00;100826.09;6295639;22;20026;-68
2023/03/22 01:08:56;;;;;;;17.40;7.30;;;;;;;9.94;100.00;100821.34;6296005;22;20623;-68
2023/03/22 01:11:22;;;;;;;20.63;7.47;;;;;;;9.64;100.00;100820.50;6323698;22;20041;-69
2023/03/22 01:13:48;;;;;;;16.33;7.50;;;;;;;9.89;100.00;100819.88;6295723;22;20011;-69
2023/03/22 01:16:14;;;;;;;19.20;7.90;;;;;;;9.65;100.00;100812.44;6296261;22;20100;-67
2023/03/22 01:18:39;;;;;;;15.32;7.15;;;;;;;9.86;100.00;100821.78;6324912;22;20018;-68
2023/03/22 01:21:06;;;;;;;15.60;6.97;;;;;;;9.62;100.00;100809.09;6295975;22;20502;-71
2023/03/22 01:23:32;;;;;;;18.02;7.80;;;;;;;9.79;100.00;100809.81;6296464;22;20029;-67
2023/03/22 01:25:58;;;;;;;16.52;8.05;;;;;;;9.69;100.00;100806.00;6295864;22;20011;-68
2023/03/22 01:28:24;;;;;;;17.67;8.07;;;;;;;9.66;100.00;100803.50;6295574;22;20114;-68
2023/03/22 01:30:50;;;;;;;23.00;8.10;;;;;;;9.77;100.00;100800.19;6269652;22;20018;-69
2023/03/22 01:33:15;;;;;;;17.15;7.50;;;;;;;9.86;100.00;100792.50;6323909;22;20049;-71
2023/03/22 01:35:41;;;;;;;15.13;8.85;;;;;;;9.69;100.00;100787.34;6296413;22;20426;-70
2023/03/22 01:38:07;;;;;;;16.05;8.05;;;;;;;9.79;100.00;100790.31;6270373;22;20015;-70
2023/03/22 01:40:37;;;;;;;14.45;8.38;;;;;;;9.79;100.00;100777.84;6296210;22;20019;-68
2023/03/22 01:43:02;;;;;;;16.98;8.63;;;;;;;9.89;100.00;100771.94;6296919;22;20123;-70
2023/03/22 01:45:41;;;;;;;22.13;8.95;;;;;;;9.87;100.00;100772.03;6323972;22;20695;-69
2023/03/22 01:48:16;;;;;;;21.92;8.35;;;;;;;9.71;100.00;100765.94;6268935;22;20049;-67
2023/03/22 01:50:48;;;;;;;18.63;8.10;;;;;;;9.85;100.00;100768.63;6295358;22;20015;-69
2023/03/22 01:53:17;;;;;;;16.83;7.40;;;;;;;9.89;100.00;100756.84;6295271;22;20022;-69
2023/03/22 01:55:45;;;;;;;13.88;7.25;;;;;;;9.78;100.00;100752.16;6295077;22;20076;-68
2023/03/22 01:58:16;;;;;;;16.23;8.20;;;;;;;9.57;100.00;100751.66;6294534;22;20026;-71
2023/03/22 02:00:54;;;;;;;16.75;7.78;;;;;;;9.86;100.00;100746.38;6294933;22;20684;-68
2023/03/22 02:03:57;;;;;;;17.48;7.43;;;;;;;9.95;100.00;100735.16;6295521;22;20568;-69
2023/03/22 02:06:25;;;;;;;17.80;7.35;;;;;;;9.92;100.00;100730.00;6295819;22;20519;-68
2023/03/22 02:08:58;;;;;;;15.18;6.97;;;;;;;9.91;100.00;100725.63;6296034;22;20039;-69
2023/03/22 02:14:07;;;;;;;13.02;7.38;;;;;;;10.00;100.00;100717.06;6212783;23;20028;-81
2023/03/22 02:17:34;;;;;;;16.48;7.82;;;;;;;10.07;100.00;100714.88;6205361;23;20042;-81
2023/03/22 02:20:09;;;;;;;18.42;7.55;;;;;;;10.11;100.00;100700.41;6238261;23;20020;-80
2023/03/22 02:22:57;;;;;;;17.60;8.70;;;;;;;9.98;100.00;100697.63;6241798;23;20024;-82
2023/03/22 02:25:22;;;;;;;18.90;9.73;;;;;;;10.07;100.00;100697.06;6241810;23;20016;-80
2023/03/22 02:28:09;;;;;;;22.42;9.82;;;;;;;10.15;100.00;100690.41;6213344;23;20352;-80
2023/03/22 02:30:35;;;;;;;22.25;11.43;;;;;;;10.17;100.00;100693.81;6240059;23;20845;-81
2023/03/22 02:33:38;;;;;;;26.80;10.95;;;;;;;10.20;100.00;100688.31;6188101;23;20031;-80
2023/03/22 02:36:29;;;;;;;23.98;10.98;;;;;;;10.39;100.00;100680.84;6211171;23;20016;-82
2023/03/22 02:39:07;;;;;;;26.70;11.77;;;;;;;10.46;100.00;100679.50;6214674;23;20024;-81
2023/03/22 02:41:39;;;;;;;24.17;11.23;;;;;;;10.45;100.00;100691.13;6241336;23;20019;-81
2023/03/22 02:44:12;;;;;;;23.75;12.32;;;;;;;10.46;100.00;100676.84;6240323;23;20257;-82
2023/03/22 02:46:44;;;;;;;21.85;11.90;;;;;;;10.53;100.00;100688.78;6213428;23;20016;-82
2023/03/22 02:49:20;;;;;;;;;;;;;;;10.38;100.00;100685.31;6240774;23;20016;-82
2023/03/22 02:51:55;;;;;;;25.40;12.55;;;;;;;10.44;100.00;100675.22;6211711;23;19918;-82
2023/03/22 02:54:27;;;;;;;23.92;11.65;;;;;;;10.50;100.00;100678.34;6238187;23;20016;-83
2023/03/22 02:56:58;;;;;;;;;;;;;;;10.42;100.00;100671.81;6213425;23;20605;-81
2023/03/22 02:59:27;;;;;;;21.85;12.07;;;;;;;10.45;100.00;100669.78;6239968;23;19946;-81
2023/03/22 03:01:59;;;;;;;22.23;13.45;;;;;;;10.44;100.00;100664.53;6210724;23;20311;-82
2023/03/22 03:04:30;;;;;;;;;;;;;;;10.46;100.00;100663.50;6240035;23;20095;-80
2023/03/22 03:07:03;;;;;;;28.75;11.65;;;;;;;10.36;100.00;100652.59;6239965;23;19912;-82
2023/03/22 03:09:31;;;;;;;22.63;12.23;;;;;;;10.33;100.00;100659.91;6238831;23;20039;-81
2023/03/22 03:11:58;;;;;;;22.88;12.60;;;;;;;10.52;100.00;100652.44;6205915;23;20022;-80
2023/03/22 03:14:30;;;;;;;24.90;12.50;;;;;;;10.60;100.00;100644.78;6243914;22;20241;-81
2023/03/22 03:17:34;;;;;;;23.95;11.98;;;;;;;10.61;100.00;100648.31;6244122;22;20016;-81
2023/03/22 03:20:18;;;;;;;21.63;11.35;;;;;;;10.71;100.00;100641.41;6224148;22;20023;-80
2023/03/22 03:23:06;;;;;;;24.77;11.82;;;;;;;10.66;100.00;100645.34;6270952;22;20413;-80
2023/03/22 03:26:09;;;;;;;21.15;11.13;;;;;;;10.70;100.00;100645.03;6243965;22;20482;-81
2023/03/22 03:28:37;;;;;;;;;;;;;;;10.83;100.00;100639.69;6243443;22;20059;-80
2023/03/22 03:31:12;;;;;;;24.67;11.25;;;;;;;10.79;100.00;100641.75;6242263;22;19977;-82
2023/03/22 03:33:56;;;;;;;26.15;10.70;;;;;;;10.74;100.00;100645.66;6270225;22;20153;-82
2023/03/22 03:36:24;;;;;;;20.55;11.98;;;;;;;10.66;100.00;100640.84;6242794;22;20042;-81
2023/03/22 03:38:52;;;;;;;21.33;11.25;;;;;;;10.73;100.00;100643.94;6270675;22;20023;-83
2023/03/22 03:41:26;;;;;;;19.98;10.77;;;;;;;10.67;100.00;100634.56;6243104;22;20016;-80
2023/03/22 03:43:54;;;;;;;16.70;9.50;;;;;;;10.75;100.00;100631.38;6269214;22;20107;-82
2023/03/22 03:46:20;;;;;;;22.00;10.38;;;;;;;10.49;100.00;100627.78;6243536;22;20034;-81
2023/03/22 03:48:49;;;;;;;17.98;10.43;;;;;;;10.73;100.00;100633.28;6271818;22;20020;-80
2023/03/22 03:51:15;;;;;;;18.55;9.80;;;;;;;10.58;100.00;100637.81;6271387;22;20019;-82
2023/03/22 03:53:41;;;;;;;19.88;9.80;;;;;;;10.63;100.00;100638.38;6243676;22;20023;-80
2023/03/22 03:56:07;;;;;;;15.45;8.50;;;;;;;10.65;100.00;100627.63;6242666;22;20023;-81
2023/03/22 03:58:37;;;;;;;18.20;8.88;;;;;;;10.57;100.00;100628.97;6241423;22;20075;-81
2023/03/22 04:01:03;;;;;;;18.77;9.13;;;;;;;10.56;100.00;100621.94;6241522;22;20016;-80
2023/03/22 04:03:34;;;;;;;15.85;8.40;;;;;;;10.73;100.00;100633.28;6280691;22;20089;-81
2023/03/22 04:06:11;;;;;;;21.17;9.25;;;;;;;10.55;100.00;100635.38;6245971;22;20019;-81
2023/03/22 04:08:44;;;;;;;18.58;8.32;;;;;;;10.77;100.00;100630.31;6242402;22;20341;-82
2023/03/22 04:11:10;;;;;;;16.33;8.02;;;;;;;10.77;100.00;100630.31;6216415;22;20647;-80
2023/03/22 04:13:35;;;;;;;16.75;7.65;;;;;;;10.65;100.00;100631.16;6243715;22;20103;-81
2023/03/22 04:16:05;;;;;;;17.75;8.45;;;;;;;10.54;100.00;100629.22;6213421;23;20024;-81
2023/03/22 04:18:34;;;;;;;16.83;7.80;;;;;;;10.53;100.00;100622.13;6239962;23;20016;-82
2023/03/22 04:21:02;;;;;;;16.20;7.25;;;;;;;10.54;100.00;100631.88;6213389;23;20012;-81
2023/03/22 04:23:33;;;;;;;25.17;10.90;;;;;;;10.43;100.00;100626.38;6212821;23;20068;-80
2023/03/22 04:25:59;;;;;;;19.20;7.57;;;;;;;10.52;100.00;100632.91;6213366;23;20051;-80
2023/03/22 04:28:35;;;;;;;16.30;7.28;;;;;;;10.34;100.00;100619.88;6214589;23;20123;-79
2023/03/22 04:31:02;;;;;;;17.15;6.80;;;;;;;10.35;100.00;100628.72;6212795;23;20027;-79
2023/03/22 04:33:53;;;;;;;16.13;7.78;;;;;;;10.52;100.00;100617.78;6238294;23;20024;-83
2023/03/22 04:36:39;;;;;;;15.88;8.25;;;;;;;10.45;100.00;100608.47;6238551;23;20102;-81
2023/03/22 04:39:14;;;;;;;13.85;7.32;;;;;;;10.44;100.00;100614.78;6237507;23;20044;-81
2023/03/22 04:41:45;;;;;;;15.90;7.15;;;;;;;10.45;100.00;100604.97;6188837;23;20454;-81
2023/03/22 04:44:10;;;;;;;12.15;6.22;;;;;;;10.42;100.00;100613.16;6214053;23;20074;-81
2023/03/22 04:46:41;;;;;;;18.27;7.72;;;;;;;10.30;100.00;100617.50;6238584;23;20020;-81
2023/03/22 04:49:06;;;;;;;15.55;6.68;;;;;;;10.40;100.00;100612.41;6214452;23;20461;-80
2023/03/22 04:51:36;;;;;;;12.00;6.95;;;;;;;10.33;100.00;100609.28;6189864;23;20020;-80
2023/03/22 04:54:20;;;;;;;13.93;6.30;;;;;;;10.26;100.00;100613.31;6214247;23;20051;-82
2023/03/22 04:56:45;;;;;;;13.55;6.60;;;;;;;10.22;100.00;100609.09;6241140;23;20346;-81
2023/03/22 04:59:13;;;;;;;12.07;6.78;;;;;;;10.18;100.00;100602.25;6212456;23;20394;-81
2023/03/22 05:01:39;;;;;;;12.55;6.80;;;;;;;10.23;100.00;100609.00;6213078;23;20012;-82
2023/03/22 05:04:16;;;;;;;14.68;6.68;;;;;;;10.00;100.00;100602.53;6240649;23;20448;-82
2023/03/22 05:06:42;;;;;;;14.15;6.38;;;;;;;10.02;100.00;100602.41;6238258;23;20024;-82
2023/03/22 05:09:15;;;;;;;15.15;5.85;;;;;;;10.28;100.00;100598.06;6213043;23;20016;-81
2023/03/22 05:11:41;;;;;;;14.52;6.10;;;;;;;10.12;100.00;100607.03;6212988;22;20423;-82
2023/03/22 05:14:22;;;;;;;13.23;5.50;;;;;;;10.05;100.00;100600.41;6235672;22;20020;-81
2023/03/22 05:16:48;;;;;;;12.95;5.55;;;;;;;10.02;100.00;100597.09;6243424;22;20031;-82
2023/03/22 05:19:13;;;;;;;15.02;6.32;;;;;;;10.10;100.00;100600.13;6244007;22;20019;-83
2023/03/22 05:21:43;;;;;;;13.52;6.00;;;;;;;10.10;100.00;100597.44;6243614;22;20022;-82
2023/03/22 05:24:10;;;;;;;12.25;5.70;;;;;;;10.10;100.00;100590.31;6241604;22;20022;-81
2023/03/22 05:26:41;;;;;;;18.05;6.07;;;;;;;9.97;100.00;100588.53;6244221;22;20023;-81
2023/03/22 05:29:09;;;;;;;13.05;6.22;;;;;;;10.07;100.00;100594.97;6218180;22;20033;-81
2023/03/22 05:31:52;;;;;;;11.20;5.75;;;;;;;10.23;100.00;100589.50;6244359;22;20016;-81
2023/03/22 05:34:19;;;;;;;12.60;6.00;;;;;;;10.12;100.00;100585.72;6242778;22;20026;-81
2023/03/22 05:36:45;;;;;;;11.15;5.40;;;;;;;10.17;100.00;100590.75;6242928;22;20024;-80
2023/03/22 05:39:25;;;;;;;9.85;4.78;;;;;;;10.15;100.00;100583.84;6221331;22;20024;-81
2023/03/22 05:41:51;;;;;;;13.73;5.22;;;;;;;10.14;100.00;100569.66;6245727;22;20066;-83
2023/03/22 05:44:16;;;;;;;19.35;7.65;;;;;;;10.17;100.00;100571.25;6270854;22;20501;-82
2023/03/22 05:46:57;;;;;;;8.93;4.32;;;;;;;10.24;100.00;100580.56;6234340;22;20051;-82
2023/03/22 05:49:32;;;;;;;13.73;4.43;;;;;;;10.30;100.00;100574.84;6233427;22;20423;-80
2023/03/22 05:51:57;;;;;;;15.98;5.55;;;;;;;10.46;100.00;100586.19;6263529;22;20023;-82
2023/03/22 05:54:29;;;;;;;10.23;4.38;;;;;;;10.34;100.00;100584.34;6240219;22;20024;-82
2023/03/22 05:56:54;;;;;;;13.27;4.57;;;;;;;10.40;100.00;100575.09;6239882;22;20177;-81
2023/03/22 05:59:20;;;;;;;10.65;4.43;;;;;;;10.36;100.00;100577.97;6240631;22;20020;-82
2023/03/22 06:01:45;;;;;;;10.75;4.22;;;;;;;10.18;100.00;100571.13;6240135;22;20016;-81
2023/03/22 06:04:20;;;;;;;8.70;4.18;;;;;;;10.22;100.00;100574.47;6241955;22;20079;-81
2023/03/22 06:06:55;;;;;;;12.60;4.25;;;;;;;10.28;100.00;100571.41;6241566;22;20019;-81
2023/03/22 06:09:40;;;;;;;8.82;4.38;;;;;;;10.38;100.00;100573.38;6272831;22;20472;-81
2023/03/22 06:12:09;;;;;;;19.88;4.57;;;;;;;10.19;100.00;100572.88;6202073;23;20022;-80
2023/03/22 06:14:34;;;;;;;10.15;4.63;;;;;;;10.28;100.00;100574.94;6091575;23;20022;-80
2023/03/22 06:17:14;;;;;;;7.40;4.18;;;;;;;10.30;100.00;100585.50;6140352;22;20451;-80
2023/03/22 06:19:39;;;;;;;8.30;4.43;;;;;;;10.35;100.00;100576.25;6117235;23;20018;-81
2023/03/22 06:22:06;;;;;;;7.65;3.17;;;;;;;10.45;100.00;100573.81;6141706;22;20109;-81
2023/03/22 06:24:34;;;;;;;8.68;4.00;;;;;;;10.46;100.00;100580.00;6094600;23;20529;-80
2023/03/22 06:27:00;;;;;;;6.68;3.50;;;;;;;10.35;100.00;100575.41;6115379;23;20034;-81
2023/03/22 06:29:27;;;;;;;12.65;4.32;;;;;;;10.50;100.00;100566.38;6114504;23;20022;-80
2023/03/22 06:31:55;;;;;;;14.52;3.42;;;;;;;10.31;100.00;100573.91;6114522;23;20099;-80
2023/03/22 06:34:20;;;;;;;12.55;4.38;;;;;;;10.51;100.00;100569.91;6139830;22;20812;-80
2023/03/22 06:36:46;;;;;;;16.52;4.40;;;;;;;10.49;100.00;100578.00;6116255;23;20022;-80
2023/03/22 06:39:31;;;;;;;14.85;3.90;;;;;;;10.54;100.00;100575.88;6115035;22;20014;-80
2023/03/22 06:41:57;;;;;;;8.77;3.30;;;;;;;10.54;100.00;100575.88;6115839;22;20033;-81
2023/03/22 06:44:22;;;;;;;11.55;3.40;;;;;;;10.58;100.00;100577.34;6116567;23;20090;-81
2023/03/22 06:46:50;;;;;;;12.75;4.10;;;;;;;10.56;100.00;100565.97;6118410;23;20072;-80
2023/03/22 06:49:27;;;;;;;11.85;3.75;;;;;;;10.59;100.00;100572.88;6137696;22;20781;-81
2023/03/22 06:51:53;;;;;;;9.23;3.78;;;;;;;10.67;100.00;100565.22;6135907;22;20086;-79
2023/03/22 06:54:19;;;;;;;9.43;3.10;;;;;;;10.66;100.00;100562.66;6112528;23;20716;-80
2023/03/22 06:56:45;;;;;;;8.27;3.60;;;;;;;11.02;100.00;100562.78;6135730;22;20026;-80
2023/03/22 06:59:10;;;;;;;10.90;3.53;;;;;;;11.15;100.00;100562.81;6111922;23;20100;-80
2023/03/22 07:01:36;;;;;;;11.30;3.08;;;;;;;11.44;100.00;100555.38;6136375;22;20022;-80
2023/03/22 07:04:01;;;;;;;14.55;3.97;;;;;;;11.76;100.00;100554.88;6111037;22;20061;-79
2023/03/22 07:06:27;;;;;;;9.18;3.72;;;;;;;12.24;100.00;100550.41;6108959;23;20026;-80
2023/03/22 07:08:54;;;;;;;10.02;3.10;;;;;;;12.38;100.00;100558.25;6130735;22;20052;-81
2023/03/22 07:11:25;;;;;;;6.63;3.33;;;;;;;12.32;100.00;100542.69;6133752;22;20025;-80
2023/03/22 07:13:56;;;;;;;13.38;3.83;;;;;;;12.15;100.00;100543.09;6232219;23;20024;-81
2023/03/22 07:16:21;;;;;;;14.27;3.78;;;;;;;12.22;100.00;100557.72;6208098;23;20020;-81
2023/03/22 07:18:52;;;;;;;10.70;3.13;;;;;;;11.90;100.00;100552.94;6233453;23;20024;-80
2023/03/22 07:21:18;;;;;;;11.02;3.65;;;;;;;12.11;100.00;100550.50;6209648;23;20016;-80
2023/03/22 07:23:49;;;;;;;10.57;4.43;;;;;;;12.35;100.00;100560.28;6208494;23;20026;-80
2023/03/22 07:26:16;;;;;;;13.30;4.18;;;;;;;12.40;100.00;100552.81;6209093;23;20027;-80
2023/03/22 07:28:45;;;;;;;8.95;4.18;;;;;;;12.57;100.00;100557.72;6208664;23;20027;-80
2023/03/22 07:31:13;;;;;;;14.10;4.18;;;;;;;12.41;100.00;100555.34;6208728;23;20578;-80
2023/03/22 07:33:58;;;;;;;7.07;3.83;;;;;;;12.55;100.00;100548.97;6213036;23;20031;-80
2023/03/22 07:36:25;;;;;;;17.95;4.13;;;;;;;12.35;100.00;100553.16;6208092;23;20111;-81
2023/03/22 07:38:52;;;;;;;8.82;3.47;;;;;;;12.69;100.00;100559.44;6228632;23;20115;-81
2023/03/22 07:41:25;;;;;;;11.93;3.78;;;;;;;12.41;100.00;100551.84;6207981;23;20501;-79
2023/03/22 07:44:12;;;;;;;17.10;4.70;;;;;;;12.68;100.00;100554.22;6208890;23;20169;-79
2023/03/22 07:46:41;;;;;;;7.20;3.97;;;;;;;12.32;100.00;100550.69;6231970;23;20107;-80
2023/03/22 07:49:30;;;;;;;8.50;3.90;;;;;;;12.41;100.00;100555.34;6209116;23;20020;-80
2023/03/22 07:52:06;;;;;;;9.02;3.83;;;;;;;12.24;100.00;100546.88;6209351;23;20020;-81
2023/03/22 07:54:32;;;;;;;12.73;4.95;;;;;;;12.20;100.00;100556.97;6209144;23;20393;-80
2023/03/22 07:56:58;;;;;;;9.05;3.75;;;;;;;12.03;100.00;100552.03;6206463;23;20027;-80
2023/03/22 07:59:23;;;;;;;10.23;4.38;;;;;;;12.04;100.00;100551.91;6234434;23;20548;-80
2023/03/22 08:01:50;;;;;;;13.60;3.75;;;;;;;12.22;100.00;100556.84;6207567;23;20031;-81
2023/03/22 08:04:23;;;;;;;15.68;4.35;;;;;;;12.22;100.00;100552.38;6209304;23;20070;-81
2023/03/22 08:06:58;;;;;;;12.20;4.70;;;;;;;12.18;100.00;100562.41;6210011;23;20016;-81
2023/03/22 08:09:26;;;;;;;7.82;4.30;;;;;;;12.58;100.00;100559.41;6210929;23;20012;-81
2023/03/22 08:11:51;;;;;;;10.60;5.05;;;;;;;12.45;100.00;100569.38;6215286;22;20027;-80
2023/03/22 08:14:17;;;;;;;16.10;5.30;;;;;;;12.58;100.00;100561.25;6241507;22;20016;-80
2023/03/22 08:16:43;;;;;;;10.20;4.85;;;;;;;12.74;100.00;100552.88;6240444;22;20019;-80
2023/03/22 08:19:10;;;;;;;13.40;5.47;;;;;;;12.60;100.00;100551.25;6266734;22;20464;-80
2023/03/22 08:21:36;;;;;;;11.82;5.07;;;;;;;12.89;100.00;100546.34;6238531;22;20019;-81
2023/03/22 08:24:05;;;;;;;11.52;5.00;;;;;;;12.99;100.00;100552.69;6238436;22;20356;-81
2023/03/22 08:26:48;;;;;;;15.32;6.15;;;;;;;13.18;100.00;100552.94;6239301;22;20239;-80
2023/03/22 08:29:22;;;;;;;15.80;7.45;;;;;;;13.35;100.00;100557.00;6263433;22;20011;-80
2023/03/22 08:31:48;;;;;;;18.23;6.40;;;;;;;13.13;100.00;100562.31;6235630;22;20110;-80
2023/03/22 08:34:13;;;;;;;16.77;5.28;;;;;;;12.65;100.00;100555.31;6236704;22;20094;-80
2023/03/22 08:36:39;;;;;;;12.88;6.03;;;;;;;12.87;100.00;100561.69;6209935;22;20348;-80
2023/03/22 08:39:07;;;;;;;15.27;5.65;;;;;;;13.28;100.00;100568.34;6235168;22;20099;-80
2023/03/22 08:42:02;;;;;;;10.82;4.13;;;;;;;13.14;100.00;100547.97;6203836;23;20104;-80
2023/03/22 08:44:28;;;;;;;13.90;4.88;;;;;;;13.33;100.00;100539.34;6206749;22;20114;-80
2023/03/22 08:46:54;;;;;;;8.35;3.63;;;;;;;13.46;100.00;100546.28;6234244;22;20031;-80
2023/03/22 08:49:20;;;;;;;16.17;5.85;;;;;;;13.87;100.00;100558.16;6235649;22;20019;-80
2023/03/22 08:51:51;;;;;;;11.65;4.68;;;;;;;13.76;100.00;100550.16;6260415;22;20739;-80
2023/03/22 08:54:37;;;;;;;11.90;4.63;;;;;;;13.73;100.00;100540.53;6234646;22;20070;-79
2023/03/22 08:57:02;;;;;;;8.20;3.90;;;;;;;13.83;100.00;100547.81;6263244;22;20094;-80
2023/03/22 08:59:51;;;;;;;9.15;3.85;;;;;;;13.67;100.00;100527.63;6237491;22;20471;-80
2023/03/22 09:02:37;;;;;;;10.05;3.80;;;;;;;13.83;100.00;100534.41;6237526;22;20019;-79
2023/03/22 09:05:03;;;;;;;10.05;3.97;;;;;;;13.61;100.00;100540.69;6238606;22;20031;-80
2023/03/22 09:07:29;;;;;;;12.93;3.65;;;;;;;13.85;100.00;100535.97;6238374;22;20016;-80
2023/03/22 09:10:10;;;;;;;13.40;4.50;;;;;;;13.87;100.00;100535.88;6237787;22;20027;-80
2023/03/22 09:12:39;;;;;;;9.77;3.50;;;;;;;14.33;100.00;100530.22;6236556;22;20575;-79
2023/03/22 09:15:06;;;;;;;13.82;4.18;;;;;;;14.58;100.00;100525.50;6211268;22;20023;-79
2023/03/22 09:17:32;;;;;;;10.98;4.60;;;;;;;14.34;99.72;100531.06;6236720;22;20016;-81
2023/03/22 09:19:57;;;;;;;12.10;3.92;;;;;;;14.20;100.00;100530.38;6235251;22;20392;-79
2023/03/22 09:22:23;;;;;;;13.18;3.53;;;;;;;14.61;98.93;100533.25;6235832;22;20109;-79
2023/03/22 09:24:49;;;;;;;7.97;3.95;;;;;;;14.79;95.98;100528.16;6235873;22;20457;-79
2023/03/22 09:27:14;;;;;;;9.98;4.18;;;;;;;14.62;95.82;100522.41;6236900;22;20027;-80
2023/03/22 09:29:41;;;;;;;11.63;3.90;;;;;;;14.58;95.42;100528.19;6237056;22;20054;-79
2023/03/22 09:32:11;;;;;;;10.50;3.35;;;;;;;14.24;96.28;100526.47;6213043;22;20015;-79
2023/03/22 09:34:38;;;;;;;12.10;4.57;;;;;;;14.54;94.90;100524.03;6262065;22;20443;-79
2023/03/22 09:37:05;;;;;;;13.68;5.10;;;;;;;14.38;96.04;100525.31;6236477;22;20102;-79
2023/03/22 09:39:43;;;;;;;8.05;2.55;;;;;;;14.41;94.13;100522.38;6236006;22;20020;-79
2023/03/22 09:42:26;;;;;;;8.88;3.47;;;;;;;14.61;94.20;100527.91;6236411;22;20012;-79
2023/03/22 09:44:54;;;;;;;7.68;3.40;;;;;;;14.77;93.02;100518.41;6210846;22;20050;-80
2023/03/22 09:47:37;;;;;;;16.48;4.65;;;;;;;14.68;95.19;100535.31;6237395;22;20019;-80
2023/03/22 09:50:30;;;;;;;7.25;3.90;;;;;;;14.77;92.75;100528.31;6263851;22;20019;-79
2023/03/22 09:52:55;;;;;;;;;;;;;;;14.81;93.49;100524.38;6251515;22;20034;-79
2023/03/22 09:55:38;;;;;;;8.85;3.10;;;;;;;14.43;94.30;100530.28;6263567;22;19911;-80
2023/03/22 09:58:20;;;;;;;10.18;3.38;;;;;;;14.50;94.99;100526.13;6264887;22;20020;-79
2023/03/22 10:00:56;;;;;;;15.52;3.33;;;;;;;14.32;94.29;100535.72;6265280;22;20209;-79
2023/03/22 10:03:40;;;;;;;8.27;3.25;;;;;;;14.07;95.32;100524.34;6264499;22;20039;-80
2023/03/22 10:06:19;;;;;;;9.40;2.90;;;;;;;14.01;96.21;100527.56;6263661;22;20007;-81
2023/03/22 10:09:13;;;;;;;5.45;2.35;;;;;;;13.79;96.99;100531.13;6263566;22;20049;-80
2023/03/22 10:11:56;;;;;;;7.80;2.95;;;;;;;13.51;97.25;100516.47;6263736;22;20108;-80
2023/03/22 10:15:16;;;;;;;11.98;2.60;;;;;;;13.36;97.92;100521.22;6236588;22;20706;-81
2023/03/22 10:17:48;;;;;;;12.30;2.45;;;;;;;13.45;98.03;100516.94;6215931;22;20034;-79
2023/03/22 10:20:44;;;;;;;10.88;2.78;;;;;;;13.59;98.79;100522.03;6265372;22;20019;-80
2023/03/22 10:23:15;;;;;;;14.93;3.30;;;;;;;13.36;99.52;100513.19;6270390;22;20018;-81
2023/03/22 10:25:42;;;;;;;8.80;2.47;;;;;;;13.25;99.72;100510.50;6269403;22;20019;-80
2023/03/22 10:28:19;;;;;;;9.02;2.72;;;;;;;13.40;97.59;100521.81;6267443;22;20020;-80
2023/03/22 10:30:52;;;;;;;12.52;3.33;;;;;;;13.44;97.14;100517.91;6267478;22;20015;-80
2023/03/22 10:33:34;;;;;;;15.63;3.95;;;;;;;13.72;96.78;100513.84;6238990;22;20789;-81
2023/03/22 10:36:02;;;;;;;7.60;2.95;;;;;;;13.59;96.75;100515.81;6266355;22;20049;-80
2023/03/22 10:38:29;;;;;;;8.52;2.65;;;;;;;13.51;98.30;100515.63;6266769;22;20007;-80
2023/03/22 10:40:57;;;;;;;9.35;2.47;;;;;;;13.71;97.20;100522.88;6266727;22;20063;-80
2023/03/22 10:43:38;;;;;;;12.23;2.75;;;;;;;13.40;98.26;100521.81;6266169;22;20043;-80
2023/03/22 10:46:07;;;;;;;9.18;3.10;;;;;;;13.43;100.00;100521.56;6266351;22;20022;-80
2023/03/22 10:48:44;;;;;;;11.20;3.78;;;;;;;13.40;100.00;100525.38;6266425;22;20024;-81
2023/03/22 10:51:42;;;;;;;7.70;2.72;;;;;;;13.35;100.00;100519.50;6264140;22;20635;-79
2023/03/22 10:54:13;;;;;;;11.95;3.20;;;;;;;13.33;100.00;100523.28;6241951;22;20102;-79
2023/03/22 10:56:38;;;;;;;6.72;2.75;;;;;;;13.15;100.00;100531.78;6265352;22;20023;-79
2023/03/22 10:59:04;;;;;;;11.18;2.53;;;;;;;12.98;100.00;100531.41;6266313;22;20016;-79
2023/03/22 11:01:32;;;;;;;9.25;2.58;;;;;;;12.79;100.00;100530.16;6265902;22;20012;-78
2023/03/22 11:04:06;;;;;;;9.23;3.55;;;;;;;13.03;100.00;100543.44;6265937;22;20106;-78
2023/03/22 11:06:34;;;;;;;15.05;3.75;;;;;;;13.15;100.00;100544.31;6266657;22;20020;-80
2023/03/22 11:09:10;;;;;;;10.25;2.60;;;;;;;13.05;100.00;100546.88;6266305;22;20047;-79
2023/03/22 11:11:46;;;;;;;17.17;3.10;;;;;;;13.03;100.00;100548.81;6264936;22;20030;-81
2023/03/22 11:14:24;;;;;;;9.00;2.67;;;;;;;13.12;100.00;100553.44;6238394;22;20019;-81
2023/03/22 11:16:57;;;;;;;9.30;2.50;;;;;;;13.06;100.00;100545.91;6265714;22;20079;-81
2023/03/22 11:19:28;;;;;;;7.15;3.08;;;;;;;12.96;100.00;100551.13;6237295;22;20455;-80
2023/03/22 11:21:56;;;;;;;12.57;3.72;;;;;;;13.24;100.00;100551.66;6264459;22;20396;-80
2023/03/22 11:24:28;;;;;;;16.13;2.90;;;;;;;13.24;100.00;100545.44;6263687;22;20022;-81
2023/03/22 11:27:06;;;;;;;10.18;2.85;;;;;;;13.38;100.00;100546.03;6262461;22;20047;-80
2023/03/22 11:29:49;;;;;;;14.48;3.92;;;;;;;13.69;100.00;100551.63;6263329;22;20146;-80
2023/03/22 11:32:26;;;;;;;11.52;3.03;;;;;;;13.84;100.00;100544.16;6264736;22;20015;-80
2023/03/22 11:35:00;;;;;;;8.65;2.90;;;;;;;13.97;100.00;100539.50;6265311;22;20028;-80
2023/03/22 11:37:26;;;;;;;11.93;3.00;;;;;;;13.61;100.00;100543.38;6245365;22;20019;-80